Time;durP1;ratioP1;P1;durP2;ratioP2;P2;SDS_P1;SDS_P2;PMS_P1;PMS_P2;Temp;Humidity;BMP_temperature;BMP_pressure;BME280_temperature;BME280_humidity;BME280_pressure;Samples;Min_cycle;Max_cycle;Signal;HPM_P1;HPM_P2
2022/09/15 00:00:11;;;;;;;;;;;;;;;21.67;64.27;94519.75;5067633;28;20036;-65
2022/09/15 00:02:37;;;;;;;;;;;;;;;21.83;64.71;94529.38;5068686;28;20055;-65
2022/09/15 00:05:02;;;;;;;;;;;;;;;21.59;62.68;94522.84;5068583;28;20013;-64
2022/09/15 00:07:27;;;;;;;;;;;;;;;21.94;63.78;94525.47;5069884;28;20005;-65
2022/09/15 00:09:52;;;;;;;;;;;;;;;21.71;64.82;94520.50;5050600;28;20064;-64
2022/09/15 00:12:18;;;;;;;;;;;;;;;21.81;63.47;94516.25;5051118;28;20009;-64
2022/09/15 00:14:43;;;;;;;;;;;;;;;22.09;63.42;94511.88;5036375;28;20112;-65
2022/09/15 00:17:08;;;;;;;;;;;;;;;22.19;63.18;94511.88;5066218;28;20066;-64
2022/09/15 00:19:33;;;;;;;;;;;;;;;22.25;62.82;94513.00;5067047;28;20020;-64
2022/09/15 00:21:58;;;;;;;;;;;;;;;22.29;64.14;94505.63;5051965;28;20027;-64
2022/09/15 00:24:24;;;;;;;;;;;;;;;22.30;62.79;94501.00;5050156;28;20059;-64
2022/09/15 00:26:49;;;;;;;;;;;;;;;22.27;63.35;94505.28;5069626;28;20129;-64
2022/09/15 00:29:14;;;;;;;;;;;;;;;22.23;62.22;94496.38;5068351;28;20496;-64
2022/09/15 00:31:39;;;;;;;;;;;;;;;22.29;64.20;94497.50;5068818;28;20013;-64
2022/09/15 00:34:06;;;;;;;;;;;;;;;22.39;63.87;94497.88;5066411;28;20083;-64
2022/09/15 00:36:31;;;;;;;;;;;;;;;22.45;63.98;94491.63;5049758;28;20103;-64
2022/09/15 00:38:56;;;;;;;;;;;;;;;22.53;63.46;94497.78;5051220;28;20052;-65
2022/09/15 00:41:22;;;;;;;;;;;;;;;22.57;62.71;94490.38;5068528;28;20096;-65
2022/09/15 00:43:47;;;;;;;;;;;;;;;22.56;61.93;94481.50;5053603;28;20104;-64
2022/09/15 00:46:14;;;;;;;;;;;;;;;22.67;62.95;94492.25;5072695;28;20313;-64
2022/09/15 00:49:00;;;;;;;;;;;;;;;22.64;62.61;94493.06;5070740;28;20017;-64
2022/09/15 00:51:37;;;;;;;;;;;;;;;22.64;60.63;94484.94;5072186;28;20013;-64
2022/09/15 00:54:05;;;;;;;;;;;;;;;22.73;63.45;94485.28;5070476;28;20035;-64
2022/09/15 00:56:32;;;;;;;;;;;;;;;22.76;62.08;94481.75;5072610;28;20009;-65
2022/09/15 00:58:59;;;;;;;;;;;;;;;22.78;63.16;94476.72;5054147;28;20053;-64
2022/09/15 01:01:26;;;;;;;;;;;;;;;22.76;62.99;94475.56;5071004;28;20036;-64
2022/09/15 01:03:51;;;;;;;;;;;;;;;22.77;62.43;94467.03;5070996;28;20039;-64
2022/09/15 01:06:23;;;;;;;;;;;;;;;22.76;62.35;94476.34;5073142;28;20012;-65
2022/09/15 01:08:55;;;;;;;;;;;;;;;22.75;62.64;94471.31;5069670;28;20533;-65
2022/09/15 01:11:20;;;;;;;;;;;;;;;22.70;62.36;94474.44;5071163;28;20014;-65
2022/09/15 01:13:46;;;;;;;;;;;;;;;22.68;62.00;94480.28;5054341;28;20028;-64
2022/09/15 01:16:26;;;;;;;;;;;;;;;22.60;62.38;94470.63;5071117;28;20013;-65
2022/09/15 01:18:57;;;;;;;;;;;;;;;22.54;61.32;94472.22;5053148;28;20009;-64
2022/09/15 01:21:28;;;;;;;;;;;;;;;22.53;61.03;94462.56;5072639;28;20037;-64
2022/09/15 01:24:08;;;;;;;;;;;;;;;22.43;62.10;94460.69;5054088;28;20010;-64
2022/09/15 01:26:36;;;;;;;;;;;;;;;22.42;61.77;94464.53;5072675;28;20009;-64
2022/09/15 01:29:20;;;;;;;;;;;;;;;22.03;61.47;94466.25;5070269;28;20112;-64
2022/09/15 01:34:37;;;;;;;;;;;;;;;22.03;61.34;94468.19;5072035;28;20016;-64
2022/09/15 01:37:06;;;;;;;;;;;;;;;21.78;61.22;94463.63;5054663;28;20015;-65
2022/09/15 01:39:34;;;;;;;;;;;;;;;21.96;61.33;94471.72;5069296;28;20009;-64
2022/09/15 01:42:11;;;;;;;;;;;;;;;20.86;60.43;94336.69;5056497;28;20064;-64
2022/09/15 01:44:57;;;;;;;;;;;;;;;21.23;62.20;94474.16;5060249;28;20009;-64
2022/09/15 01:47:24;;;;;;;;;;;;;;;21.36;61.42;94478.03;5052045;28;20017;-64
2022/09/15 01:49:51;;;;;;;;;;;;;;;21.60;60.76;94472.97;5052530;28;20477;-64
2022/09/15 01:52:18;;;;;;;;;;;;;;;21.70;60.74;94475.66;5072397;28;20458;-65
2022/09/15 01:54:47;;;;;;;;;;;;;;;21.73;59.78;94468.69;5053045;28;20020;-64
2022/09/15 01:57:13;;;;;;;;;;;;;;;21.81;59.68;94462.09;5070078;28;20487;-65
2022/09/15 01:59:38;;;;;;;;;;;;;;;21.26;60.58;94467.97;5053579;28;20009;-64
2022/09/15 02:02:06;;;;;;;;;;;;;;;21.58;60.12;94467.19;5071149;28;20013;-64
2022/09/15 02:04:40;;;;;;;;;;;;;;;21.50;60.32;94463.72;5052603;28;20016;-65
2022/09/15 02:07:10;;;;;;;;;;;;;;;21.56;59.75;94464.88;5072039;28;20005;-64
2022/09/15 02:09:38;;;;;;;;;;;;;;;21.76;59.16;94465.19;5070541;28;20096;-64
2022/09/15 02:12:07;;;;;;;;;;;;;;;22.08;58.63;94464.31;5072047;28;20092;-64
2022/09/15 02:14:34;;;;;;;;;;;;;;;21.88;58.72;94458.59;5069663;28;20035;-64
2022/09/15 02:17:01;;;;;;;;;;;;;;;22.16;57.87;94463.13;5071190;28;20518;-65
2022/09/15 02:19:37;;;;;;;;;;;;;;;22.00;57.42;94458.13;5069507;28;20009;-65
2022/09/15 02:22:09;;;;;;;;;;;;;;;21.49;58.87;94462.16;5053814;28;20017;-64
2022/09/15 02:24:39;;;;;;;;;;;;;;;21.10;58.49;94371.03;5069857;28;20009;-64
2022/09/15 02:27:08;;;;;;;;;;;;;;;21.48;59.02;94444.38;5071677;28;20009;-64
2022/09/15 02:29:35;;;;;;;;;;;;;;;21.81;58.03;94456.69;5052296;28;20017;-64
2022/09/15 02:32:01;;;;;;;;;;;;;;;21.82;58.14;94454.75;5069319;28;20028;-64
2022/09/15 02:34:32;;;;;;;;;;;;;;;21.98;57.89;94452.34;5068778;28;20078;-64
2022/09/15 02:36:58;;;;;;;;;;;;;;;22.00;57.53;94458.91;5071466;28;20001;-64
2022/09/15 02:39:26;;;;;;;;;;;;;;;21.62;58.59;94452.47;5070254;28;20115;-64
2022/09/15 02:41:52;;;;;;;;;;;;;;;22.00;57.68;94452.72;5070965;28;20009;-65
2022/09/15 02:44:17;;;;;;;;;;;;;;;22.03;57.16;94463.53;5068801;28;20362;-65
2022/09/15 02:46:42;;;;;;;;;;;;;;;22.15;57.64;94456.94;5052268;28;20013;-65
2022/09/15 02:49:07;;;;;;;;;;;;;;;22.04;57.48;94454.25;5050883;28;20021;-64
2022/09/15 02:51:33;;;;;;;;;;;;;;;22.13;57.17;94459.28;5053307;28;20009;-64
2022/09/15 02:53:58;;;;;;;;;;;;;;;22.09;56.97;94457.72;5069190;28;20044;-65
2022/09/15 02:56:23;;;;;;;;;;;;;;;21.99;57.29;94456.59;5070088;28;20024;-64
2022/09/15 02:58:48;;;;;;;;;;;;;;;21.98;57.37;94458.53;5070912;28;20012;-64
2022/09/15 03:01:14;;;;;;;;;;;;;;;21.82;57.88;94460.16;5069682;28;20158;-65
2022/09/15 03:03:40;;;;;;;;;;;;;;;21.87;57.65;94457.03;5051438;28;20530;-64
2022/09/15 03:06:15;;;;;;;;;;;;;;;21.68;58.11;94463.66;5070037;28;20017;-64
2022/09/15 03:08:50;;;;;;;;;;;;;;;21.74;57.66;94462.09;5051598;28;20020;-64
2022/09/15 03:11:19;;;;;;;;;;;;;;;21.70;58.24;94456.72;5051937;28;20009;-64
2022/09/15 03:13:45;;;;;;;;;;;;;;;21.67;58.09;94460.19;5069713;28;20010;-65
2022/09/15 03:16:12;;;;;;;;;;;;;;;21.64;58.28;94455.56;5051566;28;20013;-64
2022/09/15 03:18:37;;;;;;;;;;;;;;;21.63;58.37;94464.84;5061940;28;20377;-64
2022/09/15 03:21:04;;;;;;;;;;;;;;;21.50;58.43;94466.44;5070490;28;20010;-65
2022/09/15 03:23:29;;;;;;;;;;;;;;;21.51;58.46;94468.75;5069692;28;20048;-66
2022/09/15 03:25:54;;;;;;;;;;;;;;;21.57;58.11;94471.81;5070566;28;20567;-64
2022/09/15 03:28:19;;;;;;;;;;;;;;;21.35;58.62;94483.84;5068132;28;20024;-65
2022/09/15 03:30:45;;;;;;;;;;;;;;;21.52;58.55;94474.91;5051705;28;20020;-64
2022/09/15 03:33:10;;;;;;;;;;;;;;;21.70;58.32;94469.44;5068975;28;20359;-65
2022/09/15 03:35:36;;;;;;;;;;;;;;;21.84;57.84;94465.94;5068532;28;20017;-64
2022/09/15 03:38:01;;;;;;;;;;;;;;;22.01;57.37;94467.81;5069109;28;20032;-64
2022/09/15 03:40:26;;;;;;;;;;;;;;;22.15;56.69;94461.59;5069591;28;20071;-65
2022/09/15 03:42:51;;;;;;;;;;;;;;;21.75;56.92;94461.72;5069267;28;20060;-65
2022/09/15 03:45:16;;;;;;;;;;;;;;;22.10;56.92;94467.38;5068021;28;20464;-64
2022/09/15 03:47:41;;;;;;;;;;;;;;;22.25;56.47;94466.94;5069335;28;20005;-65
2022/09/15 03:50:07;;;;;;;;;;;;;;;22.23;56.00;94461.16;5068221;28;20017;-66
2022/09/15 03:52:32;;;;;;;;;;;;;;;22.31;55.67;94457.25;5069185;28;20013;-64
2022/09/15 03:54:57;;;;;;;;;;;;;;;22.38;55.64;94459.16;5052176;28;20009;-65
2022/09/15 03:57:23;;;;;;;;;;;;;;;22.43;55.54;94457.97;5068587;28;20013;-66
2022/09/15 03:59:48;;;;;;;;;;;;;;;22.38;55.34;94469.22;5051534;28;20020;-64
2022/09/15 04:02:14;;;;;;;;;;;;;;;22.35;55.12;94459.94;5051238;28;20151;-64
2022/09/15 04:04:40;;;;;;;;;;;;;;;22.36;54.93;94458.00;5068008;28;20013;-65
2022/09/15 04:07:05;;;;;;;;;;;;;;;21.77;56.49;94464.03;5069901;28;20056;-65
2022/09/15 04:09:30;;;;;;;;;;;;;;;21.90;55.89;94456.25;5068450;28;20542;-64
2022/09/15 04:11:56;;;;;;;;;;;;;;;21.66;56.37;94458.66;5070194;28;20484;-65
2022/09/15 04:14:21;;;;;;;;;;;;;;;21.97;55.46;94458.94;5068073;28;20009;-64
2022/09/15 04:16:46;;;;;;;;;;;;;;;21.38;56.30;94464.13;5069187;28;20013;-65
2022/09/15 04:19:12;;;;;;;;;;;;;;;22.12;55.37;94457.75;5067747;28;20056;-64
2022/09/15 04:21:38;;;;;;;;;;;;;;;21.91;54.88;94457.81;5070144;28;20014;-65
2022/09/15 04:24:04;;;;;;;;;;;;;;;22.17;55.05;94451.91;5060346;28;20013;-64
2022/09/15 04:26:31;;;;;;;;;;;;;;;22.18;54.34;94448.03;5060663;28;20460;-64
2022/09/15 04:28:57;;;;;;;;;;;;;;;21.64;55.93;94455.56;5054624;28;20047;-66
2022/09/15 04:31:22;;;;;;;;;;;;;;;21.56;56.09;94454.03;5062118;28;20009;-65
2022/09/15 04:33:50;;;;;;;;;;;;;;;21.05;57.03;94447.13;5063148;28;20049;-65
2022/09/15 04:36:17;;;;;;;;;;;;;;;21.51;56.01;94446.31;5068536;28;20013;-64
2022/09/15 04:38:43;;;;;;;;;;;;;;;21.51;55.74;94441.69;5050248;28;20557;-64
2022/09/15 04:41:09;;;;;;;;;;;;;;;21.62;55.76;94436.25;5068709;28;20088;-64
2022/09/15 04:43:34;;;;;;;;;;;;;;;20.96;57.20;94444.81;5047149;28;20016;-65
2022/09/15 04:46:00;;;;;;;;;;;;;;;21.11;56.11;94445.59;5060406;28;20005;-64
2022/09/15 04:48:25;;;;;;;;;;;;;;;21.49;55.42;94445.94;5058213;28;20020;-65
2022/09/15 04:50:50;;;;;;;;;;;;;;;21.71;54.53;94449.38;5060262;28;20017;-65
2022/09/15 04:53:15;;;;;;;;;;;;;;;21.92;54.03;94437.69;5058928;28;20184;-65
2022/09/15 04:55:41;;;;;;;;;;;;;;;21.20;55.79;94434.38;5053177;28;20014;-65
2022/09/15 04:58:06;;;;;;;;;;;;;;;21.36;55.33;94426.66;5031418;28;20006;-65
2022/09/15 05:00:33;;;;;;;;;;;;;;;21.37;55.47;94430.88;5062561;28;20067;-64
2022/09/15 05:02:59;;;;;;;;;;;;;;;21.15;55.34;94429.38;5041081;28;20527;-64
2022/09/15 05:05:24;;;;;;;;;;;;;;;21.72;54.57;94429.25;5061332;28;20010;-65
2022/09/15 05:07:50;;;;;;;;;;;;;;;21.93;53.88;94420.28;5057884;28;20013;-64
2022/09/15 05:10:15;;;;;;;;;;;;;;;22.08;53.11;94429.88;5057734;28;20017;-69
2022/09/15 05:12:40;;;;;;;;;;;;;;;21.91;53.40;94422.59;5040096;28;20405;-66
2022/09/15 05:15:06;;;;;;;;;;;;;;;21.62;54.13;94435.47;5058429;28;20144;-65
2022/09/15 05:17:32;;;;;;;;;;;;;;;21.09;54.97;94433.59;5053011;28;20063;-63
2022/09/15 05:19:58;;;;;;;;;;;;;;;21.96;53.68;94441.94;5056614;28;20013;-64
2022/09/15 05:22:23;;;;;;;;;;;;;;;21.99;53.17;94437.66;5059806;28;20533;-64
2022/09/15 05:24:48;;;;;;;;;;;;;;;21.74;53.90;94443.16;5058922;28;20021;-64
2022/09/15 05:27:13;;;;;;;;;;;;;;;21.36;54.52;94448.28;5040397;28;20059;-65
2022/09/15 05:29:39;;;;;;;;;;;;;;;21.75;53.95;94444.69;5043184;28;20021;-65
2022/09/15 05:32:04;;;;;;;;;;;;;;;22.30;52.71;94436.75;5053709;28;20020;-66
2022/09/15 05:34:29;;;;;;;;;;;;;;;22.19;55.78;94444.16;5053423;28;20009;-72
2022/09/15 05:36:54;;;;;;;;;;;;;;;22.20;53.70;94444.91;5053215;28;20060;-72
2022/09/15 05:39:19;;;;;;;;;;;;;;;22.67;52.18;94437.28;5053025;28;20017;-71
2022/09/15 05:41:45;;;;;;;;;;;;;;;22.69;51.85;94448.50;5058998;28;20016;-71
2022/09/15 05:44:10;;;;;;;;;;;;;;;22.46;51.56;94435.47;5035757;28;20016;-67
2022/09/15 05:46:35;;;;;;;;;;;;;;;22.75;51.40;94442.25;5049672;28;20062;-66
2022/09/15 05:49:00;;;;;;;;;;;;;;;22.57;51.78;94449.72;5051799;28;20067;-66
2022/09/15 05:51:26;;;;;;;;;;;;;;;22.58;52.12;94452.06;5060588;28;20009;-66
2022/09/15 05:53:51;;;;;;;;;;;;;;;22.42;51.89;94449.06;5064721;28;20372;-66
2022/09/15 05:56:17;;;;;;;;;;;;;;;22.54;51.65;94448.59;5041794;28;20010;-66
2022/09/15 05:58:44;;;;;;;;;;;;;;;22.15;51.91;94361.38;5047624;28;20014;-65
2022/09/15 06:01:13;;;;;;;;;;;;;;;22.24;52.48;94438.31;5052351;28;20016;-65
2022/09/15 06:03:39;;;;;;;;;;;;;;;22.78;51.28;94451.56;5038804;28;20725;-65
2022/09/15 06:06:05;;;;;;;;;;;;;;;22.93;51.09;94449.50;5067201;28;20013;-66
2022/09/15 06:08:41;;;;;;;;;;;;;;;22.92;51.37;94447.97;5071507;28;20496;-66
2022/09/15 06:11:11;;;;;;;;;;;;;;;22.95;51.26;94460.75;5062320;28;20021;-67
2022/09/15 06:13:37;;;;;;;;;;;;;;;22.95;50.90;94455.31;5046457;28;20020;-67
2022/09/15 06:16:06;;;;;;;;;;;;;;;22.52;51.67;94469.13;5040114;28;20747;-66
2022/09/15 06:18:32;;;;;;;;;;;;;;;22.26;52.62;94470.44;5054949;28;20006;-66
2022/09/15 06:21:01;;;;;;;;;;;;;;;22.72;51.82;94455.84;5050980;28;20626;-66
2022/09/15 06:23:27;;;;;;;;;;;;;;;22.24;52.89;94462.72;5071010;28;20060;-64
2022/09/15 06:25:52;;;;;;;;;;;;;;;22.67;51.61;94464.38;5044442;28;20083;-66
2022/09/15 06:28:18;;;;;;;;;;;;;;;23.08;51.04;94456.34;5056011;28;20111;-67
2022/09/15 06:30:48;;;;;;;;;;;;;;;22.71;51.65;94473.28;5046137;28;20370;-64
2022/09/15 06:33:13;;;;;;;;;;;;;;;22.93;51.39;94471.19;5044159;28;20735;-64
2022/09/15 06:35:38;;;;;;;;;;;;;;;22.81;51.83;94456.16;5059690;28;20022;-64
2022/09/15 06:38:03;;;;;;;;;;;;;;;22.85;51.35;94475.91;5064687;28;20019;-65
2022/09/15 06:40:29;;;;;;;;;;;;;;;22.74;51.39;94475.19;5055012;28;20016;-65
2022/09/15 06:42:55;;;;;;;;;;;;;;;22.90;51.69;94474.72;5066178;28;20109;-66
2022/09/15 06:45:21;;;;;;;;;;;;;;;22.68;52.69;94477.56;5069750;28;20013;-65
2022/09/15 06:47:46;;;;;;;;;;;;;;;22.00;55.14;94496.81;5070910;28;20031;-65
2022/09/15 06:50:11;;;;;;;;;;;;;;;22.43;54.42;94498.63;5051388;28;20024;-64
2022/09/15 06:52:36;;;;;;;;;;;;;;;22.60;55.00;94505.88;5069433;28;20525;-64
2022/09/15 06:55:01;;;;;;;;;;;;;;;22.26;55.86;94508.34;5052171;28;20021;-65
2022/09/15 06:57:27;;;;;;;;;;;;;;;22.41;56.97;94493.56;5070791;28;20005;-65
2022/09/15 06:59:52;;;;;;;;;;;;;;;22.24;57.91;94497.16;5069123;28;20017;-64
2022/09/15 07:02:17;;;;;;;;;;;;;;;22.15;58.15;94496.78;5068845;28;20096;-64
2022/09/15 07:04:43;;;;;;;;;;;;;;;22.20;58.36;94491.75;5068759;28;20055;-64
2022/09/15 07:07:08;;;;;;;;;;;;;;;22.56;57.36;94502.41;5065572;28;20462;-65
2022/09/15 07:09:33;;;;;;;;;;;;;;;22.82;56.68;94495.66;5051613;28;20067;-65
2022/09/15 07:11:58;;;;;;;;;;;;;;;22.62;56.17;94495.38;5051407;28;20013;-65
2022/09/15 07:14:23;;;;;;;;;;;;;;;22.99;56.35;94496.75;5063707;28;20016;-65
2022/09/15 07:16:49;;;;;;;;;;;;;;;23.40;55.15;94496.81;5068840;28;20064;-65
2022/09/15 07:19:14;;;;;;;;;;;;;;;23.51;54.47;94496.69;5050820;28;20381;-64
2022/09/15 07:21:39;;;;;;;;;;;;;;;23.86;54.36;94499.09;5069135;28;20024;-65
2022/09/15 07:24:04;;;;;;;;;;;;;;;24.12;53.05;94505.78;5070192;28;20009;-64
2022/09/15 07:26:30;;;;;;;;;;;;;;;24.27;52.09;94500.19;5068996;28;20020;-65
2022/09/15 07:29:00;;;;;;;;;;;;;;;24.46;52.25;94501.50;5051594;28;20021;-66
2022/09/15 07:31:26;;;;;;;;;;;;;;;23.74;53.26;94496.88;5067943;28;20009;-64
2022/09/15 07:33:52;;;;;;;;;;;;;;;23.83;53.56;94505.31;5070299;28;20030;-66
2022/09/15 07:36:17;;;;;;;;;;;;;;;24.15;52.26;94490.59;5050309;28;20638;-67
2022/09/15 07:38:43;;;;;;;;;;;;;;;24.46;51.75;94505.00;5069245;28;20040;-65
2022/09/15 07:41:13;;;;;;;;;;;;;;;24.46;51.40;94513.16;5068070;28;20539;-70
2022/09/15 07:43:38;;;;;;;;;;;;;;;24.27;51.00;94506.38;5051159;28;20121;-68
2022/09/15 07:46:04;;;;;;;;;;;;;;;23.92;51.87;94501.34;5068740;28;20096;-69
2022/09/15 07:48:29;;;;;;;;;;;;;;;23.26;53.31;94499.63;5068367;28;20021;-69
2022/09/15 07:50:55;;;;;;;;;;;;;;;23.94;51.77;94499.00;5050369;28;20064;-74
2022/09/15 07:53:20;;;;;;;;;;;;;;;23.73;51.94;94500.75;5068670;28;20033;-67
2022/09/15 07:55:50;;;;;;;;;;;;;;;23.15;52.68;94502.44;5069431;28;20064;-65
2022/09/15 07:58:15;;;;;;;;;;;;;;;22.69;53.85;94503.50;5059551;28;20550;-66
2022/09/15 08:00:40;;;;;;;;;;;;;;;22.51;54.54;94500.09;5049093;28;20100;-64
2022/09/15 08:03:05;;;;;;;;;;;;;;;23.41;52.75;94503.75;5050401;28;20013;-66
2022/09/15 08:05:31;;;;;;;;;;;;;;;23.48;52.67;94500.19;5051939;28;20670;-65
2022/09/15 08:07:56;;;;;;;;;;;;;;;23.23;53.26;94506.63;5066540;28;20016;-64
2022/09/15 08:10:23;;;;;;;;;;;;;;;22.83;53.28;94511.56;5051220;28;20116;-65
2022/09/15 08:12:49;;;;;;;;;;;;;;;23.00;53.37;94511.84;5050254;28;20016;-66
2022/09/15 08:15:14;;;;;;;;;;;;;;;22.63;54.75;94518.66;5048672;28;20009;-66
2022/09/15 08:17:40;;;;;;;;;;;;;;;22.56;53.96;94516.72;5062092;28;20410;-66
2022/09/15 08:20:05;;;;;;;;;;;;;;;23.05;53.21;94517.63;5043772;28;20430;-66
2022/09/15 08:22:31;;;;;;;;;;;;;;;23.29;52.24;94518.59;5067995;28;20381;-68
2022/09/15 08:24:56;;;;;;;;;;;;;;;23.74;51.58;94523.25;5068511;28;20009;-68
2022/09/15 08:27:22;;;;;;;;;;;;;;;23.22;52.22;94512.44;5069834;28;20012;-68
2022/09/15 08:29:48;;;;;;;;;;;;;;;23.63;51.11;94512.50;5049453;28;20478;-67
2022/09/15 08:32:13;;;;;;;;;;;;;;;23.53;51.22;94513.34;5069600;28;20009;-68
2022/09/15 08:34:38;;;;;;;;;;;;;;;23.33;51.79;94513.91;5065059;28;20014;-68
2022/09/15 08:37:04;;;;;;;;;;;;;;;24.13;50.32;94511.97;5073346;28;20020;-68
2022/09/15 08:39:29;;;;;;;;;;;;;;;23.47;52.28;94507.59;5051310;28;20010;-68
2022/09/15 08:41:54;;;;;;;;;;;;;;;23.70;51.79;94511.66;5069671;28;20006;-68
2022/09/15 08:44:19;;;;;;;;;;;;;;;24.02;50.80;94508.63;5051490;28;20020;-68
2022/09/15 08:46:54;;;;;;;;;;;;;;;24.08;50.84;94504.28;5051456;28;20009;-68
2022/09/15 08:49:33;;;;;;;;;;;;;;;24.22;50.57;94501.41;5050945;28;20020;-69
2022/09/15 08:52:02;;;;;;;;;;;;;;;24.19;50.05;94504.16;5051372;28;20350;-70
2022/09/15 08:54:28;;;;;;;;;;;;;;;24.02;50.12;94509.38;5051293;28;20036;-69
2022/09/15 08:56:54;;;;;;;;;;;;;;;23.84;50.32;94500.66;5069417;28;20477;-69
2022/09/15 08:59:20;;;;;;;;;;;;;;;24.33;48.79;94498.53;5069419;28;20012;-70
2022/09/15 09:01:57;;;;;;;;;;;;;;;24.59;48.18;94500.56;5069358;28;20006;-70
2022/09/15 09:04:32;;;;;;;;;;;;;;;23.12;51.77;94511.34;5071118;28;20418;-69
2022/09/15 09:07:13;;;;;;;;;;;;;;;23.60;50.69;94503.19;5055287;28;20093;-70
2022/09/15 09:09:56;;;;;;;;;;;;;;;23.24;51.38;94507.41;5072791;28;20017;-68
2022/09/15 09:12:34;;;;;;;;;;;;;;;23.78;49.88;94513.13;5073026;28;20010;-69
2022/09/15 09:14:59;;;;;;;;;;;;;;;22.78;52.19;94501.13;5073242;28;20002;-71
2022/09/15 09:17:40;;;;;;;;;;;;;;;23.25;51.32;94514.38;5055119;28;20059;-69
2022/09/15 09:20:22;;;;;;;;;;;;;;;23.25;51.27;94509.72;5072825;28;20005;-69
2022/09/15 09:22:49;;;;;;;;;;;;;;;23.23;51.26;94500.41;5072862;28;20020;-69
2022/09/15 09:25:17;;;;;;;;;;;;;;;23.19;51.69;94505.13;5072339;28;20049;-70
2022/09/15 09:27:42;;;;;;;;;;;;;;;23.25;51.48;94493.44;5070170;28;20021;-71
2022/09/15 09:30:11;;;;;;;;;;;;;;;23.39;50.80;94497.19;5062253;28;20013;-71
2022/09/15 09:32:51;;;;;;;;;;;;;;;22.86;52.38;94506.50;5068810;28;20009;-70
2022/09/15 09:35:22;;;;;;;;;;;;;;;22.66;52.27;94503.50;5057089;28;20046;-69
2022/09/15 09:37:49;;;;;;;;;;;;;;;22.54;52.69;94500.09;5034991;28;20013;-71
2022/09/15 09:40:14;;;;;;;;;;;;;;;23.01;51.83;94491.69;5052068;28;20012;-70
2022/09/15 09:42:40;;;;;;;;;;;;;;;23.40;51.36;94496.81;5035534;28;20013;-70
2022/09/15 09:45:06;;;;;;;;;;;;;;;23.90;50.20;94490.13;5052451;28;20013;-71
2022/09/15 09:47:33;;;;;;;;;;;;;;;23.67;50.20;94501.63;5052536;28;20016;-71
2022/09/15 09:49:59;;;;;;;;;;;;;;;23.08;51.17;94500.56;5051866;28;20060;-69
2022/09/15 09:52:34;;;;;;;;;;;;;;;23.62;50.26;94494.66;5034413;28;20059;-68
2022/09/15 09:55:00;;;;;;;;;;;;;;;23.91;49.43;94480.81;5061386;28;20005;-71
2022/09/15 09:57:29;;;;;;;;;;;;;;;23.43;50.71;94487.84;5072185;28;20009;-67
2022/09/15 09:59:55;;;;;;;;;;;;;;;23.99;48.70;94483.03;5071685;28;20012;-65
2022/09/15 10:02:23;;;;;;;;;;;;;;;25.61;46.77;94474.09;5072163;28;20009;-74
2022/09/15 10:04:53;;;;;;;;;;;;;;;25.42;45.33;94481.81;5072154;28;20006;-67
2022/09/15 10:07:20;;;;;;;;;;;;;;;25.17;45.84;94470.56;5054054;28;20358;-67
2022/09/15 10:09:55;;;;;;;;;;;;;;;25.71;45.27;94475.88;5071505;28;20009;-66
2022/09/15 10:12:23;;;;;;;;;;;;;;;23.33;49.72;94484.03;5053938;28;20013;-63
2022/09/15 10:14:50;;;;;;;;;;;;;;;25.27;46.46;94449.81;5053503;28;20056;-64
2022/09/15 10:17:27;;;;;;;;;;;;;;;24.03;47.94;94477.56;5071816;28;20012;-66
2022/09/15 10:19:53;;;;;;;;;;;;;;;24.47;47.63;94475.88;5054999;28;20485;-65
2022/09/15 10:22:30;;;;;;;;;;;;;;;24.58;46.69;94473.78;5032574;28;20049;-65
2022/09/15 10:24:56;;;;;;;;;;;;;;;25.08;45.92;94471.13;5051682;28;20017;-65
2022/09/15 10:27:27;;;;;;;;;;;;;;;23.96;48.01;94469.50;5061329;28;20009;-65
2022/09/15 10:29:52;;;;;;;;;;;;;;;25.60;44.74;94472.56;5052839;28;20015;-65
2022/09/15 10:32:21;;;;;;;;;;;;;;;23.66;47.41;94481.84;5053355;28;20099;-65
2022/09/15 10:34:47;;;;;;;;;;;;;;;24.33;46.11;94476.81;5071425;28;20010;-65
2022/09/15 10:37:22;;;;;;;;;;;;;;;24.87;45.10;94472.16;5053573;28;20014;-66
2022/09/15 10:39:54;;;;;;;;;;;;;;;24.79;45.00;94478.91;5052661;28;20015;-66
2022/09/15 10:42:19;;;;;;;;;;;;;;;24.45;45.16;94481.72;5071377;28;20462;-67
2022/09/15 10:45:05;;;;;;;;;;;;;;;23.71;46.91;94497.69;5071316;28;20054;-67
2022/09/15 10:47:33;;;;;;;;;;;;;;;23.41;48.21;94494.84;5042512;28;20048;-66
2022/09/15 10:50:11;;;;;;;;;;;;;;;24.98;45.24;94485.63;5070473;28;20024;-69
2022/09/15 10:52:36;;;;;;;;;;;;;;;24.63;45.63;94481.47;5053081;28;20017;-67
2022/09/15 10:55:07;;;;;;;;;;;;;;;23.64;47.36;94483.41;5053127;28;20009;-66
2022/09/15 10:57:45;;;;;;;;;;;;;;;24.47;45.54;94484.03;5053144;28;20113;-67
2022/09/15 11:00:21;;;;;;;;;;;;;;;23.90;47.33;94482.72;5052367;28;20009;-67
2022/09/15 11:03:00;;;;;;;;;;;;;;;25.69;44.01;94470.06;5070665;28;20035;-67
2022/09/15 11:05:33;;;;;;;;;;;;;;;26.26;42.53;94463.53;5068758;28;20488;-67
2022/09/15 11:07:58;;;;;;;;;;;;;;;26.27;41.59;94462.34;5050702;28;20066;-67
2022/09/15 11:10:46;;;;;;;;;;;;;;;24.40;47.15;94476.72;5056767;28;20115;-67
2022/09/15 11:13:31;;;;;;;;;;;;;;;24.20;47.21;94478.50;5070894;28;20103;-66
2022/09/15 11:16:22;;;;;;;;;;;;;;;23.83;48.67;94464.56;5070671;28;20010;-66
2022/09/15 11:18:58;;;;;;;;;;;;;;;24.87;47.10;94458.56;5039135;28;20035;-67
2022/09/15 11:21:38;;;;;;;;;;;;;;;25.05;46.10;94473.84;5066966;28;20477;-66
2022/09/15 11:24:18;;;;;;;;;;;;;;;24.18;47.78;94486.31;5070761;28;20017;-65
2022/09/15 11:26:51;;;;;;;;;;;;;;;24.08;47.69;94471.66;5052216;28;20488;-65
2022/09/15 11:29:25;;;;;;;;;;;;;;;24.01;47.03;94477.19;5070190;28;20112;-64
2022/09/15 11:31:54;;;;;;;;;;;;;;;24.19;46.36;94479.69;5070587;28;20100;-65
2022/09/15 11:34:19;;;;;;;;;;;;;;;24.69;45.97;94468.94;5070357;28;20005;-65
2022/09/15 11:37:07;;;;;;;;;;;;;;;24.88;45.55;94473.72;5070435;28;20009;-66
2022/09/15 11:39:56;;;;;;;;;;;;;;;23.53;49.07;94476.09;5070059;28;20005;-65
2022/09/15 11:42:21;;;;;;;;;;;;;;;24.00;48.07;94459.34;5041662;28;20009;-65
2022/09/15 11:44:47;;;;;;;;;;;;;;;24.81;46.44;94464.88;5070243;28;20100;-65
2022/09/15 11:47:12;;;;;;;;;;;;;;;23.88;48.93;94459.88;5070305;28;20010;-65
2022/09/15 11:49:40;;;;;;;;;;;;;;;23.96;48.24;94464.84;5069509;28;20068;-65
2022/09/15 11:52:08;;;;;;;;;;;;;;;24.84;45.62;94462.13;5070095;28;20033;-65
2022/09/15 11:54:54;;;;;;;;;;;;;;;25.41;44.96;94466.66;5069983;28;20012;-65
2022/09/15 11:57:24;;;;;;;;;;;;;;;24.50;46.19;94461.44;5070093;28;20469;-65
2022/09/15 11:59:53;;;;;;;;;;;;;;;23.26;49.00;94465.13;5070135;28;20012;-65
2022/09/15 12:02:21;;;;;;;;;;;;;;;23.04;49.96;94482.75;5070025;28;20051;-66
2022/09/15 12:05:06;;;;;;;;;;;;;;;23.67;48.89;94480.66;5069898;28;20475;-65
2022/09/15 12:07:36;;;;;;;;;;;;;;;24.53;46.55;94468.81;5069926;28;20063;-65
2022/09/15 12:10:12;;;;;;;;;;;;;;;24.75;46.73;94455.66;5068371;28;20085;-66
2022/09/15 12:12:39;;;;;;;;;;;;;;;25.27;45.51;94460.69;5069160;28;20067;-66
2022/09/15 12:15:04;;;;;;;;;;;;;;;25.11;45.92;94447.75;5069707;28;20453;-65
2022/09/15 12:17:48;;;;;;;;;;;;;;;23.94;47.54;94479.97;5069594;28;20427;-65
2022/09/15 12:20:19;;;;;;;;;;;;;;;23.68;48.57;94468.63;5069200;28;20009;-65
2022/09/15 12:22:54;;;;;;;;;;;;;;;24.38;47.22;94474.44;5069687;28;20016;-65
2022/09/15 12:25:24;;;;;;;;;;;;;;;24.70;46.19;94477.88;5069311;28;20004;-66
2022/09/15 12:28:21;;;;;;;;;;;;;;;22.33;52.43;94491.31;5069577;28;20013;-65
2022/09/15 12:30:47;;;;;;;;;;;;;;;22.06;53.12;94491.78;5026387;28;20482;-64
2022/09/15 12:33:38;;;;;;;;;;;;;;;21.92;55.28;94486.44;5049701;28;20053;-64
2022/09/15 12:36:22;;;;;;;;;;;;;;;21.53;57.23;94484.56;5061651;28;20101;-65
2022/09/15 12:38:48;;;;;;;;;;;;;;;22.07;55.83;94477.09;5071841;28;20054;-65
2022/09/15 12:41:13;;;;;;;;;;;;;;;21.91;55.90;94490.31;5073852;28;20085;-64
2022/09/15 12:43:38;;;;;;;;;;;;;;;22.89;53.54;94484.81;5072142;28;20005;-65
2022/09/15 12:46:04;;;;;;;;;;;;;;;24.48;49.97;94475.47;5074241;28;20572;-65
2022/09/15 12:48:35;;;;;;;;;;;;;;;23.52;52.31;94462.94;5073386;28;20010;-64
2022/09/15 12:51:02;;;;;;;;;;;;;;;24.02;50.42;94465.16;5056028;28;20399;-64
2022/09/15 12:53:32;;;;;;;;;;;;;;;23.35;52.29;94476.28;5074190;28;20458;-64
2022/09/15 12:55:59;;;;;;;;;;;;;;;23.71;51.16;94462.41;5074118;28;20556;-63